^^
Datos históricos de la estación: Murcia-Puente Tocinos
Diario Informe para Noviembre 6, 2019 Unidades:  Métrico    Ingés   Ambas
Diario Semanal Mensual Anual
  Máxima: Mínima: Promedio:
Temperatura: 20.6 °C 13.2 °C 16.6 °C
Punto de rocio: 5.7 °C 3.3 °C 4.8 °C
Humedad: 60% 32.1% 46%
Velocidad viento: 22.5km/h 2.2km/h 9.8km/h
Racha viento: 40.7km/h - -
Viento- - OSO
Presión: 1014.7 hPa 1011.7 hPa -
Precipitación: 0.0 mm    
 
 
Tabla de datos para Noviembre 6, 2019
Hora Temperatura Punto de rocio Presión Viento Velocidad viento Racha viento Humedad Intensidad lluvia(por hora) Nubes
00:04 14.4 °C 5.2 °C 1012.9 hPa Sur 8.4 km/h 13 km/h 54% 0.0 mm
00:09 14.3 °C 5.1 °C 1013.0 hPa Sur 8.7 km/h 12.9 km/h 54% 0.0 mm
00:14 14.4 °C 5.2 °C 1013.0 hPa Sur 8.4 km/h 14.8 km/h 54% 0.0 mm
00:19 14.5 °C 5.3 °C 1013.0 hPa Sur 8.4 km/h 10 km/h 54% 0.0 mm
00:24 14.6 °C 5.2 °C 1013.0 hPa SSO 7.2 km/h 11.1 km/h 53.2% 0.0 mm
00:29 14.7 °C 5.2 °C 1013.0 hPa SSO 6.9 km/h 11.3 km/h 53% 0.0 mm
00:34 14.8 °C 5.3 °C 1013.0 hPa SSO 6.9 km/h 11.3 km/h 53% 0.0 mm
00:39 14.8 °C 5.3 °C 1013.0 hPa SSO 6.9 km/h 11.3 km/h 53% 0.0 mm
00:44 14.9 °C 5.1 °C 1013.0 hPa SSO 6.9 km/h 11.3 km/h 52.1% 0.0 mm
00:49 14.9 °C 5.2 °C 1013.0 hPa SO 6.9 km/h 11.3 km/h 52% 0.0 mm
00:54 14.9 °C 5.1 °C 1013.0 hPa OSO 6 km/h 9.7 km/h 52% 0.0 mm
00:59 14.8 °C 5.1 °C 1013.0 hPa SO 5.8 km/h 10 km/h 52.1% 0.0 mm
01:04 14.8 °C 5.1 °C 1013.0 hPa OSO 6.3 km/h 11.9 km/h 52% 0.0 mm
01:09 14.8 °C 5.1 °C 1013.0 hPa OSO 6.5 km/h 13.7 km/h 52% 0.0 mm
01:14 14.8 °C 5.1 °C 1012.8 hPa SO 8 km/h 14.5 km/h 52% 0.0 mm
01:19 14.9 °C 5 °C 1012.8 hPa SO 8.4 km/h 14.5 km/h 51.5% 0.0 mm
01:24 15.2 °C 5 °C 1012.8 hPa OSO 8.6 km/h 13.7 km/h 50.7% 0.0 mm
01:29 15.3 °C 5 °C 1012.8 hPa OSO 8.7 km/h 14.5 km/h 50% 0.0 mm
01:34 15.5 °C 4.9 °C 1012.8 hPa OSO 7.8 km/h 13.7 km/h 49.2% 0.0 mm
01:39 15.6 °C 5 °C 1012.8 hPa Oeste 7.6 km/h 14.5 km/h 49.4% 0.0 mm
01:44 15.3 °C 5 °C 1012.7 hPa OSO 7.1 km/h 11.3 km/h 50.5% 0.0 mm
01:49 14.9 °C 5.1 °C 1012.7 hPa OSO 6.9 km/h 11.3 km/h 51.7% 0.0 mm
01:54 14.9 °C 5.1 °C 1012.7 hPa SO 6.5 km/h 11.3 km/h 52% 0.0 mm
01:59 14.9 °C 5 °C 1012.5 hPa OSO 6.5 km/h 10 km/h 51.4% 0.0 mm
02:04 15.1 °C 5.2 °C 1012.5 hPa ONO 5.3 km/h 9.7 km/h 51.8% 0.0 mm
02:09 14.8 °C 5.3 °C 1012.8 hPa Oeste 5 km/h 8 km/h 52.8% 0.0 mm
02:14 14.5 °C 5.2 °C 1012.8 hPa OSO 4.1 km/h 11.1 km/h 53.5% 0.0 mm
02:19 14.4 °C 5.2 °C 1012.8 hPa OSO 3.9 km/h 15.6 km/h 54% 0.0 mm
02:24 14.5 °C 5 °C 1012.8 hPa OSO 7.6 km/h 16.1 km/h 53.2% 0.0 mm
02:29 14.4 °C 5.2 °C 1012.6 hPa OSO 8.7 km/h 16.7 km/h 53.9% 0.0 mm
02:34 14.3 °C 5.1 °C 1012.6 hPa OSO 9.7 km/h 16.1 km/h 54% 0.0 mm
02:39 14.3 °C 5.1 °C 1012.6 hPa SO 10 km/h 16.7 km/h 54% 0.0 mm
02:44 14.4 °C 5.2 °C 1012.6 hPa OSO 9.6 km/h 16.1 km/h 54% 0.0 mm
02:49 14.4 °C 5.2 °C 1012.6 hPa OSO 9.5 km/h 14.8 km/h 54% 0.0 mm
02:54 14.4 °C 5.2 °C 1012.6 hPa OSO 8.9 km/h 14.5 km/h 54% 0.0 mm
02:59 14.3 °C 5.3 °C 1012.4 hPa OSO 8.7 km/h 14.5 km/h 54.4% 0.0 mm
03:04 14.3 °C 5.4 °C 1012.4 hPa OSO 8.7 km/h 14.8 km/h 55% 0.0 mm
03:09 14.4 °C 5.4 °C 1012.4 hPa OSO 8.7 km/h 14.8 km/h 55% 0.0 mm
03:14 14.5 °C 5.4 °C 1012.3 hPa SO 9.7 km/h 16.7 km/h 54.6% 0.0 mm
03:19 14.6 °C 5.4 °C 1012.3 hPa SO 10 km/h 16.7 km/h 54% 0.0 mm
03:24 14.7 °C 5.5 °C 1012.6 hPa SO 8.7 km/h 14.5 km/h 54% 0.0 mm
03:29 14.7 °C 5.5 °C 1012.6 hPa NNO 8.4 km/h 12.9 km/h 54% 0.0 mm
03:34 14.5 °C 5.5 °C 1012.6 hPa NNE 4.7 km/h 11.1 km/h 54.7% 0.0 mm
03:39 14 °C 5.5 °C 1012.7 hPa NE 3.9 km/h 11.3 km/h 56.5% 0.0 mm
03:44 13.7 °C 5.5 °C 1012.7 hPa NE 4.5 km/h 8 km/h 57.8% 0.0 mm
03:49 13.4 °C 5.6 °C 1012.7 hPa ENE 4.7 km/h 7.4 km/h 58.9% 0.0 mm
03:54 13.3 °C 5.7 °C 1012.7 hPa Este 3.5 km/h 8 km/h 60% 0.0 mm
03:59 13.2 °C 5.6 °C 1012.7 hPa Este 3.2 km/h 5 km/h 59.9% 0.0 mm
04:04 13.3 °C 5.5 °C 1012.7 hPa Sur 2.4 km/h 8.7 km/h 59% 0.0 mm
04:09 13.7 °C 5.6 °C 1012.7 hPa SSO 2.2 km/h 9.7 km/h 58.2% 0.0 mm
04:14 13.8 °C 5.6 °C 1012.6 hPa SO 4.2 km/h 9.3 km/h 57.5% 0.0 mm
04:19 14 °C 5.6 °C 1012.6 hPa SO 4.7 km/h 9.7 km/h 57% 0.0 mm
04:24 14.1 °C 5.5 °C 1012.6 hPa SO 5.6 km/h 9.7 km/h 56.1% 0.0 mm
04:29 14.1 °C 5.5 °C 1012.6 hPa OSO 5.8 km/h 10 km/h 56.3% 0.0 mm
04:34 14.1 °C 5.7 °C 1012.6 hPa OSO 6.3 km/h 14.8 km/h 56.9% 0.0 mm
04:39 14.2 °C 5.7 °C 1012.7 hPa SO 6.5 km/h 14.5 km/h 56.7% 0.0 mm
04:44 14.2 °C 5.6 °C 1012.7 hPa SO 5.9 km/h 9.7 km/h 56% 0.0 mm
04:49 14.2 °C 5.6 °C 1012.7 hPa SO 5.8 km/h 9.3 km/h 56% 0.0 mm
04:54 14.4 °C 5.7 °C 1012.7 hPa OSO 5.1 km/h 9.7 km/h 56% 0.0 mm
04:59 14.4 °C 5.6 °C 1012.6 hPa SO 5 km/h 9.7 km/h 55.2% 0.0 mm
05:04 14.4 °C 5.4 °C 1012.6 hPa SO 5.6 km/h 10 km/h 55% 0.0 mm
05:09 14.5 °C 5.6 °C 1012.7 hPa OSO 5.8 km/h 11.1 km/h 55% 0.0 mm
05:14 14.6 °C 5.6 °C 1012.7 hPa Oeste 6.3 km/h 11.3 km/h 55% 0.0 mm
05:19 14.4 °C 5.5 °C 1012.7 hPa Oeste 6.5 km/h 8.4 km/h 55% 0.0 mm
05:24 14.3 °C 5.6 °C 1012.7 hPa Oeste 5.9 km/h 10 km/h 56% 0.0 mm
05:29 14.3 °C 5.6 °C 1012.7 hPa Oeste 5.8 km/h 11.1 km/h 56% 0.0 mm
05:34 14.2 °C 5.6 °C 1012.7 hPa OSO 6.7 km/h 13 km/h 56.1% 0.0 mm
05:39 14.1 °C 5.7 °C 1012.8 hPa OSO 6.9 km/h 12.9 km/h 57% 0.0 mm
05:44 13.9 °C 5.6 °C 1012.8 hPa OSO 6.9 km/h 14.8 km/h 57.4% 0.0 mm
05:49 13.9 °C 5.7 °C 1012.8 hPa Oeste 6.9 km/h 14.5 km/h 57.9% 0.0 mm
05:54 13.8 °C 5.6 °C 1012.9 hPa Oeste 7.5 km/h 13 km/h 58% 0.0 mm
05:59 13.7 °C 5.6 °C 1012.9 hPa OSO 7.6 km/h 18.5 km/h 58% 0.0 mm
06:04 13.7 °C 5.6 °C 1012.9 hPa Oeste 8.5 km/h 19.3 km/h 58% 0.0 mm
06:09 13.7 °C 5.7 °C 1013.1 hPa Oeste 8.7 km/h 14.8 km/h 58.5% 0.0 mm
06:14 13.6 °C 5.7 °C 1013.1 hPa Oeste 7.3 km/h 12.9 km/h 59% 0.0 mm
06:19 13.6 °C 5.7 °C 1013.1 hPa Oeste 6.9 km/h 8 km/h 59% 0.0 mm
06:24 13.6 °C 5.7 °C 1013.2 hPa ONO 5.2 km/h 8 km/h 59% 0.0 mm
06:29 13.5 °C 5.6 °C 1013.2 hPa ONO 4.7 km/h 8.4 km/h 59% 0.0 mm
06:34 13.6 °C 5.7 °C 1013.2 hPa Oeste 3.5 km/h 9.5 km/h 59% 0.0 mm
06:39 13.6 °C 5.7 °C 1013.2 hPa Oeste 3.2 km/h 9.7 km/h 58.7% 0.0 mm
06:44 13.7 °C 5.7 °C 1013.2 hPa OSO 4.6 km/h 10 km/h 58.7% 0.0 mm
06:49 13.7 °C 5.5 °C 1013.2 hPa Oeste 5 km/h 24.5 km/h 57.8% 0.0 mm
06:54 14.2 °C 5.3 °C 1013.2 hPa Oeste 8.6 km/h 24.1 km/h 55.1% 0.0 mm
06:59 14.4 °C 5.2 °C 1013.2 hPa Oeste 9.5 km/h 18.5 km/h 54% 0.0 mm
07:04 14.5 °C 5.3 °C 1013.2 hPa OSO 8.8 km/h 19.3 km/h 54% 0.0 mm
07:09 14.6 °C 5.2 °C 1013.2 hPa Oeste 8.7 km/h 19 km/h 53.2% 0.0 mm
07:14 14.7 °C 5.1 °C 1013.2 hPa OSO 9.3 km/h 19.3 km/h 52.6% 0.0 mm
07:19 14.7 °C 5.2 °C 1013.2 hPa Sur 9.5 km/h 9.7 km/h 53.1% 0.0 mm
07:24 14.6 °C 5.4 °C 1013.3 hPa Sur 7.1 km/h 9.7 km/h 54% 0.0 mm
07:29 14.5 °C 5.3 °C 1013.3 hPa SO 6.5 km/h 9.7 km/h 54.2% 0.0 mm
07:34 14.4 °C 5.2 °C 1013.3 hPa OSO 5.9 km/h 9.7 km/h 54% 0.0 mm
07:39 14.4 °C 5.4 °C 1013.5 hPa OSO 5.8 km/h 9.7 km/h 54.9% 0.0 mm
07:44 14.3 °C 5.3 °C 1013.5 hPa OSO 5.8 km/h 17.2 km/h 54.8% 0.0 mm
07:49 14.3 °C 5.2 °C 1013.5 hPa OSO 5.8 km/h 17.7 km/h 54% 0.0 mm
07:54 14.3 °C 5.1 °C 1013.7 hPa OSO 7.2 km/h 11.3 km/h 54% 0.0 mm
07:59 14.5 °C 5 °C 1013.7 hPa SO 7.6 km/h 16.7 km/h 53.2% 0.0 mm
08:04 14.8 °C 4.9 °C 1013.7 hPa OSO 7.6 km/h 18.5 km/h 51.7% 0.0 mm
08:09 14.9 °C 4.9 °C 1013.8 hPa SO 7.6 km/h 19.3 km/h 51.1% 0.0 mm
08:14 15.1 °C 4.9 °C 1013.8 hPa Oeste 7.6 km/h 14.8 km/h 50.7% 0.0 mm
08:19 15.2 °C 4.9 °C 1013.8 hPa Oeste 7.6 km/h 20.4 km/h 50.1% 0.0 mm
08:24 15.3 °C 4.9 °C 1013.9 hPa ONO 9.1 km/h 20.9 km/h 50% 0.0 mm
08:29 15.4 °C 5 °C 1013.9 hPa ONO 9.5 km/h 12.9 km/h 50% 0.0 mm
08:34 15.4 °C 5 °C 1013.9 hPa Oeste 7.1 km/h 13 km/h 50% 0.0 mm
08:39 15.5 °C 5.1 °C 1014.0 hPa Oeste 6.5 km/h 16.7 km/h 49.9% 0.0 mm
08:44 15.5 °C 5.2 °C 1014.0 hPa Oeste 8.2 km/h 16.1 km/h 50% 0.0 mm
08:49 15.6 °C 5.2 °C 1014.0 hPa Oeste 8.7 km/h 16.1 km/h 50% 0.0 mm
08:54 15.5 °C 5.2 °C 1014.1 hPa Oeste 9.3 km/h 16.1 km/h 50% 0.0 mm
08:59 15.6 °C 5.2 °C 1014.1 hPa Oeste 9.5 km/h 18.5 km/h 50% 0.0 mm
09:04 15.7 °C 5.2 °C 1014.1 hPa OSO 9.9 km/h 19.3 km/h 50% 0.0 mm
09:09 15.7 °C 5.3 °C 1014.2 hPa OSO 10 km/h 20.9 km/h 49.9% 0.0 mm
09:14 15.8 °C 5.3 °C 1014.2 hPa OSO 10.2 km/h 20.9 km/h 49.7% 0.0 mm
09:19 15.9 °C 5.2 °C 1014.2 hPa OSO 10.3 km/h 20.4 km/h 49% 0.0 mm
09:24 16.2 °C 5.3 °C 1014.2 hPa OSO 9.7 km/h 21.7 km/h 48.6% 0.0 mm
09:29 16.3 °C 5.1 °C 1014.2 hPa OSO 9.5 km/h 25.1 km/h 47.6% 0.0 mm
09:34 16.4 °C 5 °C 1014.2 hPa Oeste 9.9 km/h 25.9 km/h 47% 0.0 mm
09:39 16.4 °C 5.1 °C 1014.5 hPa OSO 10 km/h 25.7 km/h 47% 0.0 mm
09:44 16.5 °C 5.1 °C 1014.5 hPa OSO 10.2 km/h 22.5 km/h 47% 0.0 mm
09:49 16.6 °C 5.2 °C 1014.5 hPa OSO 10.3 km/h 22.5 km/h 47% 0.0 mm
09:54 16.5 °C 5.2 °C 1014.6 hPa OSO 10.1 km/h 22.5 km/h 47% 0.0 mm
09:59 16.6 °C 5.2 °C 1014.6 hPa Oeste 10 km/h 25.6 km/h 46.9% 0.0 mm
10:04 16.6 °C 5 °C 1014.6 hPa Oeste 11.9 km/h 27.8 km/h 46% 0.0 mm
10:09 16.7 °C 5 °C 1014.7 hPa ONO 12.2 km/h 29.6 km/h 46% 0.0 mm
10:14 16.7 °C 5 °C 1014.7 hPa Oeste 16.3 km/h 29.6 km/h 45.9% 0.0 mm
10:19 16.7 °C 5 °C 1014.7 hPa Oeste 17.2 km/h 29 km/h 46% 0.0 mm
10:24 16.8 °C 5.1 °C 1014.7 hPa Oeste 15.3 km/h 27.4 km/h 46% 0.0 mm
10:29 16.9 °C 5 °C 1014.7 hPa Oeste 14.8 km/h 25.9 km/h 45.2% 0.0 mm
10:34 17.1 °C 5 °C 1014.7 hPa Oeste 13.9 km/h 25.7 km/h 45.1% 0.0 mm
10:39 17.2 °C 5 °C 1014.7 hPa ONO 13.7 km/h 29.6 km/h 44.6% 0.0 mm
10:44 17.2 °C 5.1 °C 1014.7 hPa ONO 13.7 km/h 29 km/h 44.7% 0.0 mm
10:49 17.3 °C 4.9 °C 1014.7 hPa Oeste 13.7 km/h 31.7 km/h 44% 0.0 mm
10:54 17.3 °C 4.9 °C 1014.7 hPa ONO 14.5 km/h 32.2 km/h 44% 0.0 mm
10:59 17.3 °C 4.9 °C 1014.6 hPa ONO 14.8 km/h 29.8 km/h 44% 0.0 mm
11:04 17.3 °C 5 °C 1014.6 hPa ONO 16.8 km/h 30.6 km/h 44% 0.0 mm
11:09 17.4 °C 4.8 °C 1014.6 hPa ONO 17.2 km/h 37 km/h 43.4% 0.0 mm
11:14 17.4 °C 4.7 °C 1014.5 hPa ONO 17.2 km/h 37 km/h 43.2% 0.0 mm
11:19 17.4 °C 4.8 °C 1014.5 hPa ONO 17.2 km/h 35.4 km/h 43.3% 0.0 mm
11:24 17.6 °C 5 °C 1014.5 hPa ONO 20.8 km/h 32.2 km/h 43.4% 0.0 mm
11:29 17.7 °C 4.7 °C 1014.2 hPa ONO 21.7 km/h 40.7 km/h 42.2% 0.0 mm
11:34 17.7 °C 4.5 °C 1014.2 hPa Oeste 22.4 km/h 40.2 km/h 42% 0.0 mm
11:39 17.7 °C 4.7 °C 1014.2 hPa Oeste 22.5 km/h 40.2 km/h 42.2% 0.0 mm
11:44 17.9 °C 5 °C 1013.9 hPa Oeste 20.3 km/h 37 km/h 42.5% 0.0 mm
11:49 18 °C 5 °C 1013.9 hPa ONO 19.8 km/h 30.6 km/h 42.3% 0.0 mm
11:54 18.1 °C 5.1 °C 1013.9 hPa Oeste 17.8 km/h 30.6 km/h 42.3% 0.0 mm
11:59 18.2 °C 5.1 °C 1013.7 hPa ONO 17.2 km/h 29 km/h 42% 0.0 mm
12:04 18.3 °C 5.2 °C 1013.7 hPa Oeste 15.2 km/h 27.4 km/h 42% 0.0 mm
12:09 18.4 °C 5.2 °C 1013.8 hPa Oeste 14.8 km/h 25.7 km/h 42% 0.0 mm
12:14 18.4 °C 5.1 °C 1013.8 hPa Oeste 13.4 km/h 28.2 km/h 41.4% 0.0 mm
12:19 18.5 °C 5 °C 1013.8 hPa ONO 13 km/h 31.7 km/h 41% 0.0 mm
12:24 18.6 °C 5.1 °C 1013.8 hPa Oeste 15.7 km/h 32.2 km/h 40.9% 0.0 mm
12:29 18.8 °C 5 °C 1013.7 hPa Oeste 16.4 km/h 26.2 km/h 40.3% 0.0 mm
12:34 18.8 °C 5 °C 1013.7 hPa Oeste 15.1 km/h 28.2 km/h 40.3% 0.0 mm
12:39 18.9 °C 5.1 °C 1013.7 hPa ONO 14.8 km/h 35.2 km/h 40.2% 0.0 mm
12:44 18.8 °C 4.9 °C 1013.4 hPa ONO 16.7 km/h 35.4 km/h 39.8% 0.0 mm
12:49 18.7 °C 4.9 °C 1013.4 hPa ONO 17.2 km/h 32.3 km/h 40% 0.0 mm
12:54 18.9 °C 5 °C 1013.4 hPa ONO 18.1 km/h 33.8 km/h 40% 0.0 mm
12:59 18.9 °C 4.9 °C 1013.1 hPa ONO 18.4 km/h 37 km/h 39.8% 0.0 mm
13:04 19 °C 5.1 °C 1013.1 hPa ONO 19.8 km/h 37 km/h 40% 0.0 mm
13:09 19.1 °C 5.1 °C 1013.1 hPa ONO 20.1 km/h 34.3 km/h 39.8% 0.0 mm
13:14 19.2 °C 4.9 °C 1012.9 hPa ONO 17.1 km/h 33.8 km/h 39% 0.0 mm
13:19 19.2 °C 4.8 °C 1012.9 hPa Oeste 16.4 km/h 30.6 km/h 38.9% 0.0 mm
13:24 19.3 °C 4.8 °C 1012.9 hPa Oeste 17.7 km/h 34.3 km/h 38.6% 0.0 mm
13:29 19.3 °C 4.6 °C 1012.7 hPa Oeste 18 km/h 33.8 km/h 38% 0.0 mm
13:34 19.4 °C 4.7 °C 1012.7 hPa Oeste 18.8 km/h 29 km/h 38% 0.0 mm
13:39 19.5 °C 4.8 °C 1012.7 hPa ONO 19 km/h 25.7 km/h 38% 0.0 mm
13:44 19.6 °C 4.9 °C 1012.5 hPa Oeste 15.6 km/h 24.1 km/h 38% 0.0 mm
13:49 19.6 °C 4.9 °C 1012.5 hPa Oeste 14.8 km/h 22.2 km/h 38% 0.0 mm
13:54 19.6 °C 4.8 °C 1012.5 hPa Oeste 12.4 km/h 26.2 km/h 37.8% 0.0 mm
13:59 19.6 °C 4.8 °C 1012.3 hPa Oeste 11.9 km/h 25.7 km/h 37.8% 0.0 mm
14:04 19.8 °C 4.9 °C 1012.3 hPa Oeste 10.6 km/h 24.1 km/h 37.6% 0.0 mm
14:09 19.9 °C 4.8 °C 1012.3 hPa Oeste 10.3 km/h 25.9 km/h 37.1% 0.0 mm
14:14 19.9 °C 4.9 °C 1012.3 hPa ONO 10.3 km/h 25.7 km/h 37.3% 0.0 mm
14:19 20 °C 4.9 °C 1012.3 hPa ONO 10.3 km/h 18.5 km/h 37.2% 0.0 mm
14:24 20.1 °C 4.9 °C 1012.3 hPa NO 10.3 km/h 24.1 km/h 37% 0.0 mm
14:29 20.1 °C 4.9 °C 1012.1 hPa NO 10.3 km/h 26.2 km/h 37% 0.0 mm
14:34 20.2 °C 5 °C 1012.1 hPa ONO 12.5 km/h 25.7 km/h 36.9% 0.0 mm
14:39 20.3 °C 4.9 °C 1012.1 hPa Oeste 13 km/h 20.9 km/h 36.4% 0.0 mm
14:44 20.3 °C 4.6 °C 1012.1 hPa Oeste 9.3 km/h 20.4 km/h 35.8% 0.0 mm
14:49 20.4 °C 4.5 °C 1012.1 hPa ONO 8.4 km/h 22.5 km/h 35.2% 0.0 mm
14:54 20.4 °C 4 °C 1012.1 hPa Oeste 12.9 km/h 22.5 km/h 34.1% 0.0 mm
14:59 20.4 °C 4.1 °C 1012.0 hPa ONO 14 km/h 20.9 km/h 34.2% 0.0 mm
15:04 20.5 °C 4.1 °C 1012.0 hPa ONO 12.3 km/h 27.8 km/h 34% 0.0 mm
15:09 20.5 °C 3.7 °C 1012.0 hPa Oeste 11.9 km/h 27.4 km/h 33.2% 0.0 mm
15:14 20.6 °C 4 °C 1011.7 hPa ONO 13.3 km/h 29.6 km/h 33.5% 0.0 mm
15:19 20.6 °C 3.3 °C 1011.7 hPa ONO 13.7 km/h 33.3 km/h 32.1% 0.0 mm
15:24 20.5 °C 3.3 °C 1011.7 hPa ONO 17.2 km/h 33.8 km/h 32.1% 0.0 mm
15:29 20.5 °C 3.7 °C 1011.7 hPa ONO 18 km/h 26.2 km/h 33% 0.0 mm
15:34 20.5 °C 3.7 °C 1011.7 hPa ONO 15.5 km/h 25.7 km/h 33% 0.0 mm
15:39 20.6 °C 3.8 °C 1011.7 hPa ONO 14.8 km/h 35.2 km/h 33% 0.0 mm
15:44 20.6 °C 3.7 °C 1011.7 hPa ONO 15.8 km/h 35.4 km/h 33% 0.0 mm
15:49 20.4 °C 3.5 °C 1011.7 hPa ONO 16.1 km/h 32.2 km/h 32.9% 0.0 mm
15:54 20.3 °C 3.6 °C 1011.8 hPa Oeste 17.9 km/h 29 km/h 33% 0.0 mm
15:59 20.4 °C 3.5 °C 1011.8 hPa ONO 18.4 km/h 25.9 km/h 33% 0.0 mm
16:04 20.4 °C 3.9 °C 1011.8 hPa ONO 14.7 km/h 25.7 km/h 33.8% 0.0 mm
16:09 20.4 °C 3.9 °C 1011.9 hPa Oeste 14 km/h 24.1 km/h 33.8% 0.0 mm
16:14 20.4 °C 3.8 °C 1011.9 hPa Oeste 13.2 km/h 29.6 km/h 33.6% 0.0 mm
16:19 20.4 °C 4 °C 1011.9 hPa Oeste 13 km/h 29 km/h 34% 0.0 mm
16:24 20.3 °C 3.8 °C 1011.9 hPa ONO 15.5 km/h 28.2 km/h 33.9% 0.0 mm
16:29 20.2 °C 3.8 °C 1011.9 hPa ONO 16.1 km/h 27.8 km/h 34% 0.0 mm
16:34 20.2 °C 3.8 °C 1011.9 hPa ONO 15.7 km/h 25.7 km/h 34% 0.0 mm
16:39 20.2 °C 3.9 °C 1012.0 hPa ONO 15.6 km/h 30.6 km/h 34% 0.0 mm
16:44 20.2 °C 3.8 °C 1012.0 hPa ONO 14.3 km/h 30.6 km/h 34% 0.0 mm
16:49 20.1 °C 3.8 °C 1012.0 hPa ONO 14 km/h 25.9 km/h 34.1% 0.0 mm
16:54 20 °C 3.9 °C 1012.0 hPa ONO 14.7 km/h 25.9 km/h 34.7% 0.0 mm
16:59 19.9 °C 4 °C 1011.9 hPa ONO 14.8 km/h 25.7 km/h 35% 0.0 mm
17:04 19.9 °C 4 °C 1011.9 hPa NO 13.3 km/h 24.1 km/h 35% 0.0 mm
17:09 19.9 °C 4 °C 1011.9 hPa ONO 13 km/h 24.1 km/h 35.1% 0.0 mm
17:14 19.9 °C 4.1 °C 1011.8 hPa Oeste 11.5 km/h 22.5 km/h 35.3% 0.0 mm
17:19 19.9 °C 4.3 °C 1011.8 hPa ONO 11.1 km/h 17.7 km/h 35.9% 0.0 mm
17:24 19.8 °C 4.3 °C 1011.8 hPa ONO 9.2 km/h 20.4 km/h 36% 0.0 mm
17:29 19.8 °C 4.3 °C 1011.8 hPa ONO 8.7 km/h 25.6 km/h 36% 0.0 mm
17:34 19.7 °C 4.4 °C 1011.8 hPa ONO 11.5 km/h 25.9 km/h 36.4% 0.0 mm
17:39 19.6 °C 4.5 °C 1011.9 hPa Oeste 12.2 km/h 25.7 km/h 37% 0.0 mm
17:44 19.5 °C 4.4 °C 1011.9 hPa Oeste 10.7 km/h 19.3 km/h 37% 0.0 mm
17:49 19.4 °C 4.4 °C 1011.9 hPa Oeste 10.3 km/h 19.3 km/h 37.1% 0.0 mm
17:54 19.3 °C 4.6 °C 1012.1 hPa Oeste 9.7 km/h 12.9 km/h 38% 0.0 mm
17:59 19.2 °C 4.5 °C 1012.1 hPa Oeste 9.5 km/h 11.3 km/h 38.1% 0.0 mm
18:04 19.1 °C 4.6 °C 1012.1 hPa Oeste 7 km/h 18.5 km/h 38.3% 0.0 mm
18:09 18.9 °C 4.7 °C 1012.3 hPa Oeste 6.5 km/h 19.3 km/h 39% 0.0 mm
18:14 18.8 °C 4.6 °C 1012.3 hPa Oeste 8.3 km/h 16.1 km/h 39% 0.0 mm
18:19 18.8 °C 4.5 °C 1012.3 hPa ONO 8.7 km/h 16.7 km/h 38.9% 0.0 mm
18:24 18.8 °C 4.5 °C 1012.4 hPa Oeste 8.4 km/h 16.1 km/h 38.9% 0.0 mm
18:29 18.7 °C 4.5 °C 1012.4 hPa Oeste 8.4 km/h 9.7 km/h 39% 0.0 mm
18:34 18.6 °C 4.6 °C 1012.4 hPa Oeste 6.8 km/h 11.1 km/h 39.6% 0.0 mm
18:39 18.5 °C 4.6 °C 1012.6 hPa OSO 6.5 km/h 13 km/h 39.9% 0.0 mm
18:44 18.4 °C 4.5 °C 1012.6 hPa Oeste 6.5 km/h 12.9 km/h 40% 0.0 mm
18:49 18.3 °C 4.4 °C 1012.6 hPa Oeste 6.5 km/h 11.3 km/h 40% 0.0 mm
18:54 18.2 °C 4.4 °C 1012.7 hPa OSO 6.8 km/h 14 km/h 39.9% 0.0 mm
18:59 18.2 °C 4.3 °C 1012.7 hPa OSO 6.9 km/h 14.8 km/h 39.8% 0.0 mm
19:04 18.2 °C 4.4 °C 1012.7 hPa OSO 7.5 km/h 12.9 km/h 40% 0.0 mm
19:09 18.1 °C 4.2 °C 1012.9 hPa OSO 7.6 km/h 14.8 km/h 39.9% 0.0 mm
19:14 18.1 °C 4.1 °C 1012.9 hPa OSO 6.7 km/h 16.7 km/h 39.6% 0.0 mm
19:19 18.1 °C 3.9 °C 1012.9 hPa SO 6.5 km/h 16.1 km/h 39% 0.0 mm
19:24 18.1 °C 3.9 °C 1012.9 hPa SO 7.3 km/h 14.8 km/h 39% 0.0 mm
19:29 18.1 °C 3.9 °C 1012.9 hPa OSO 7.6 km/h 14.8 km/h 39.2% 0.0 mm
19:34 17.9 °C 4.1 °C 1012.9 hPa SO 8.5 km/h 17.2 km/h 40% 0.0 mm
19:39 17.8 °C 4.3 °C 1013.2 hPa SSO 8.7 km/h 17.7 km/h 41% 0.0 mm
19:44 17.7 °C 4.3 °C 1013.2 hPa SO 9.7 km/h 14.5 km/h 41% 0.0 mm
19:49 17.7 °C 4.6 °C 1013.2 hPa SO 10 km/h 13.7 km/h 42% 0.0 mm
19:54 17.6 °C 4.5 °C 1013.3 hPa SSO 8 km/h 14.5 km/h 42.2% 0.0 mm
19:59 17.3 °C 4.6 °C 1013.3 hPa SSO 7.6 km/h 15.6 km/h 43% 0.0 mm
20:04 17.2 °C 4.7 °C 1013.3 hPa SSO 8.5 km/h 16.1 km/h 43.6% 0.0 mm
20:09 17 °C 4.7 °C 1013.5 hPa SSO 8.7 km/h 14.5 km/h 44% 0.0 mm
20:14 16.9 °C 4.6 °C 1013.5 hPa SSO 9.4 km/h 13 km/h 44% 0.0 mm
20:19 16.8 °C 4.6 °C 1013.5 hPa SSO 9.5 km/h 13.7 km/h 44.3% 0.0 mm
20:24 16.8 °C 4.7 °C 1013.5 hPa SSO 7.9 km/h 14.5 km/h 44.9% 0.0 mm
20:29 16.7 °C 4.7 °C 1013.5 hPa SSO 7.6 km/h 11.3 km/h 45% 0.0 mm
20:34 16.6 °C 4.6 °C 1013.5 hPa SSO 7.6 km/h 13 km/h 45% 0.0 mm
20:39 16.6 °C 4.6 °C 1013.5 hPa SSO 7.6 km/h 13 km/h 45% 0.0 mm
20:44 16.5 °C 4.5 °C 1013.5 hPa SSO 8.2 km/h 12.9 km/h 45% 0.0 mm
20:49 16.4 °C 4.4 °C 1013.5 hPa SO 8.4 km/h 13.7 km/h 45% 0.0 mm
20:54 16.4 °C 4.4 °C 1013.5 hPa SO 8.6 km/h 14.8 km/h 45% 0.0 mm
20:59 16.4 °C 4.4 °C 1013.5 hPa SO 8.7 km/h 14.5 km/h 45% 0.0 mm
21:04 16.4 °C 4.4 °C 1013.5 hPa SO 8.7 km/h 14.5 km/h 45% 0.0 mm
21:09 16.3 °C 4.3 °C 1013.5 hPa SO 8.7 km/h 14.8 km/h 45% 0.0 mm
21:14 16.3 °C 4.3 °C 1013.5 hPa SO 8.7 km/h 15.6 km/h 45% 0.0 mm
21:19 16.2 °C 4.5 °C 1013.5 hPa SO 8.7 km/h 16.1 km/h 45.8% 0.0 mm
21:24 16.1 °C 4.4 °C 1013.5 hPa SSO 7.8 km/h 13 km/h 46% 0.0 mm
21:29 16.1 °C 4.4 °C 1013.5 hPa SSO 7.6 km/h 13 km/h 45.9% 0.0 mm
21:34 16.1 °C 4.4 °C 1013.5 hPa Sur 7.6 km/h 13 km/h 45.9% 0.0 mm
21:39 16.1 °C 4.4 °C 1013.5 hPa Sur 7.6 km/h 12.9 km/h 46% 0.0 mm
21:44 15.9 °C 4.6 °C 1013.5 hPa SE 7.1 km/h 11.3 km/h 46.8% 0.0 mm
21:49 15.8 °C 4.8 °C 1013.5 hPa Oeste 6.9 km/h 8.4 km/h 48.1% 0.0 mm
21:54 15.3 °C 4.9 °C 1013.7 hPa North 5.1 km/h 8 km/h 49.8% 0.0 mm
21:59 15 °C 4.8 °C 1013.7 hPa NNO 4.7 km/h 8 km/h 50.7% 0.0 mm
22:04 14.8 °C 4.8 °C 1013.7 hPa NO 3.4 km/h 5.8 km/h 51% 0.0 mm
22:09 14.8 °C 4.7 °C 1013.7 hPa Oeste 3.2 km/h 6.4 km/h 50.9% 0.0 mm
22:14 14.9 °C 4.6 °C 1013.7 hPa OSO 3.2 km/h 11.1 km/h 50.2% 0.0 mm
22:19 15.1 °C 4.7 °C 1013.7 hPa Oeste 3.2 km/h 22 km/h 49.8% 0.0 mm
22:24 15.2 °C 4.6 °C 1013.7 hPa OSO 6.7 km/h 22.5 km/h 49% 0.0 mm
22:29 15.2 °C 4.5 °C 1013.6 hPa OSO 7.6 km/h 22.5 km/h 48.6% 0.0 mm
22:34 15.3 °C 4.4 °C 1013.6 hPa OSO 9.1 km/h 16.1 km/h 48% 0.0 mm
22:39 15.4 °C 4.3 °C 1013.6 hPa OSO 9.5 km/h 18.5 km/h 47.3% 0.0 mm
22:44 15.6 °C 4.3 °C 1013.6 hPa SO 9.5 km/h 19.3 km/h 47% 0.0 mm
22:49 15.5 °C 4.4 °C 1013.6 hPa SO 9.5 km/h 12.9 km/h 47.6% 0.0 mm
22:54 15.5 °C 4.5 °C 1013.7 hPa Sur 7.1 km/h 11.3 km/h 48% 0.0 mm
22:59 15.4 °C 4.5 °C 1013.7 hPa SSE 6.5 km/h 9.7 km/h 48% 0.0 mm
23:04 15.3 °C 4.5 °C 1013.7 hPa SE 5.9 km/h 10.3 km/h 48.4% 0.0 mm
23:09 15.1 °C 4.6 °C 1013.7 hPa SSE 5.8 km/h 13 km/h 49.4% 0.0 mm
23:14 14.8 °C 4.5 °C 1013.7 hPa SSE 7.2 km/h 12.9 km/h 50% 0.0 mm
23:19 14.7 °C 4.6 °C 1013.7 hPa SSO 7.6 km/h 11.3 km/h 50.8% 0.0 mm
23:24 14.6 °C 4.6 °C 1013.7 hPa SSO 6.1 km/h 9.7 km/h 51% 0.0 mm
23:29 14.6 °C 4.6 °C 1013.7 hPa SSO 5.8 km/h 9.7 km/h 51% 0.0 mm
23:34 14.7 °C 4.6 °C 1013.7 hPa SO 6.3 km/h 10 km/h 51% 0.0 mm
23:39 14.7 °C 4.7 °C 1013.7 hPa SSO 6.5 km/h 13.7 km/h 51% 0.0 mm
23:44 14.7 °C 4.7 °C 1013.6 hPa SO 6.8 km/h 14.5 km/h 51% 0.0 mm
23:49 14.7 °C 4.7 °C 1013.6 hPa SO 6.9 km/h 8 km/h 51% 0.0 mm
23:54 14.6 °C 4.6 °C 1013.6 hPa SSO 5.1 km/h 9.5 km/h 51% 0.0 mm
23:59 14.6 °C 4.6 °C 1013.6 hPa Sur 4.7 km/h 10 km/h 51% 0.0 mm
Murcia-Puente Tocinos, España
Compliments of Weather Underground - 3 mb

La estación de MeteoMurcia.com, publica sus datos en los siguientes proyectos:

Weather Underground PWS IMURCIAP2 Meteoclimatic www.awekas.at

W3Counter
Web Analytics